createdAt,value
2023-04-26T19:41:03.495Z,2.25
2023-04-26T19:43:31.427Z,4.00
2023-04-26T19:45:59.422Z,4.38
2023-04-26T19:48:27.816Z,9.98
2023-04-26T19:50:55.754Z,6.82
2023-04-26T19:53:23.634Z,5.32
2023-04-26T19:55:51.478Z,8.23
2023-04-26T19:58:20.749Z,14.95
2023-04-26T20:00:48.670Z,18.30
2023-04-26T20:03:16.836Z,10.45
2023-04-26T20:05:44.831Z,10.38
2023-04-26T20:08:12.747Z,16.08
2023-04-26T20:10:41.678Z,13.05
2023-04-26T20:13:09.553Z,20.15
2023-04-26T20:15:38.796Z,17.85
2023-04-26T20:18:07.216Z,18.15
2023-04-26T20:20:35.285Z,16.65
2023-04-26T20:23:03.498Z,21.50
2023-04-26T20:25:31.866Z,22.52
2023-04-26T20:28:02.031Z,20.08
2023-04-26T20:30:31.216Z,23.48
2023-04-26T20:33:00.565Z,22.33
2023-04-26T20:35:28.633Z,24.23
2023-04-26T20:37:56.517Z,33.60
2023-04-26T20:40:24.396Z,21.63
2023-04-26T20:42:52.369Z,28.38
2023-04-26T20:45:20.378Z,26.13
2023-04-26T20:47:48.372Z,24.55
2023-04-26T20:50:17.719Z,27.05
2023-04-26T20:52:46.472Z,28.80
2023-04-26T20:55:14.467Z,28.75
2023-04-26T20:57:42.684Z,33.50
2023-04-26T21:00:11.389Z,29.05
2023-04-26T21:02:39.434Z,30.17
2023-04-26T21:05:07.970Z,31.50
2023-04-26T21:07:37.217Z,42.25
2023-04-26T21:10:05.693Z,32.13
2023-04-26T21:12:34.312Z,36.53
2023-04-26T21:15:02.375Z,41.25
2023-04-26T21:17:30.327Z,41.42
2023-04-26T21:19:58.250Z,35.55
2023-04-26T21:22:26.134Z,35.55
2023-04-26T21:24:55.558Z,34.13
2023-04-26T21:27:23.505Z,34.65
2023-04-26T21:29:51.321Z,33.50
2023-04-26T21:32:19.153Z,35.10
2023-04-26T21:34:47.049Z,32.03
2023-04-26T21:37:16.553Z,37.50
2023-04-26T21:39:44.364Z,32.35
2023-04-26T21:42:13.731Z,33.67
2023-04-26T21:44:41.608Z,31.67
2023-04-26T21:47:09.569Z,32.67
2023-04-26T21:49:39.400Z,32.63
2023-04-26T21:52:07.285Z,30.63
2023-04-26T21:54:35.756Z,35.47
2023-04-26T21:57:06.678Z,34.28
2023-04-26T21:59:36.374Z,37.00
2023-04-26T22:02:04.515Z,31.83
2023-04-26T22:04:32.782Z,29.73
2023-04-26T22:07:00.853Z,29.63
